CST,Max TemperatureF,Mean TemperatureF,Min TemperatureF,Max Dew PointF,MeanDew PointF,Min DewpointF,Max Humidity, Mean Humidity, Min Humidity, Max Sea Level PressureIn, Mean Sea Level PressureIn, Min Sea Level PressureIn, Max VisibilityMiles, Mean VisibilityMiles, Min VisibilityMiles, Max Wind SpeedMPH, Mean Wind SpeedMPH, Max Gust SpeedMPH,PrecipitationIn, CloudCover, Events, WindDirDegrees
2011-11-1,79,60,40,52,46,39,96,63,29,30.20,30.14,30.08,10,10,7,15,5,20,0.00,0,,134
2011-11-2,83,68,52,65,58,49,100,74,47,30.12,30.06,29.98,10,9,3,21,10,30,0.12,2,Rain,148
2011-11-3,62,51,39,54,34,26,71,49,27,30.31,30.23,30.14,10,10,10,21,8,29,0.00,2,Rain,322
2011-11-4,68,50,32,40,33,27,85,58,30,30.25,30.18,30.11,10,10,10,10,3,17,0.00,0,,22
2011-11-5,73,55,37,55,45,36,93,67,41,30.14,30.06,29.96,10,10,8,17,8,23,0.00,1,,128
2011-11-6,81,72,62,63,59,55,84,68,51,30.12,30.05,30.00,10,10,10,18,10,23,0.00,7,,134
2011-11-7,80,72,64,65,63,61,87,73,58,30.12,30.05,29.96,10,10,7,20,10,24,0.00,7,Rain,134
2011-11-8,80,69,57,70,65,55,93,80,67,30.05,29.93,29.84,10,8,1,23,10,58,1.41,7,Rain,158
2011-11-9,64,56,48,55,43,35,93,68,42,30.34,30.20,30.06,10,8,0,16,8,24,0.00,0,Fog,333
2011-11-10,65,52,38,36,32,26,85,55,24,30.44,30.35,30.30,10,10,10,16,4,33,0.00,0,,341
2011-11-11,68,50,32,42,33,28,89,57,24,30.29,30.22,30.12,10,10,10,17,6,22,0.00,0,,170
2011-11-12,77,61,45,58,51,41,93,70,46,30.11,30.03,29.96,10,10,10,20,9,28,0.00,1,,156
2011-11-13,84,73,61,68,63,58,93,71,48,29.97,29.92,29.83,10,10,10,22,10,28,0.00,7,,168
2011-11-14,83,75,66,67,65,61,84,66,47,29.94,29.88,29.79,10,10,10,18,9,25,0.00,5,,179
2011-11-15,83,73,63,69,65,62,100,79,58,29.83,29.77,29.70,10,6,0,21,7,24,0.84,6,Fog-Rain,159
2011-11-16,72,65,58,65,62,51,100,89,78,30.20,29.89,29.72,10,7,1,21,4,29,T,7,Rain,318
2011-11-17,63,51,39,45,35,27,80,54,27,30.42,30.33,30.23,10,10,10,16,7,23,0.00,1,,28
2011-11-18,67,50,33,51,37,28,89,62,34,30.30,30.18,30.05,10,10,10,14,7,,0.00,0,,134
2011-11-19,78,67,55,70,62,52,93,81,68,30.05,29.99,29.93,10,10,10,20,11,26,0.00,8,Rain,154
2011-11-20,85,78,71,72,69,64,93,72,51,30.12,30.07,30.01,10,10,10,20,8,25,T,6,Rain,163
2011-11-21,84,76,67,70,68,66,100,79,58,30.14,30.06,29.92,10,9,2,20,9,26,0.01,6,Rain,153
2011-11-22,73,63,53,70,57,48,93,85,77,30.19,30.01,29.88,10,9,3,16,8,24,0.57,8,Rain,318
2011-11-23,71,58,44,50,46,42,93,70,47,30.29,30.24,30.20,10,5,0,12,3,15,0.00,1,Fog,3
2011-11-24,58,50,42,50,48,41,100,86,72,30.35,30.28,30.20,10,4,0,12,3,14,0.00,4,Fog,83
2011-11-25,73,58,42,59,49,39,96,77,57,30.18,30.11,29.95,10,5,0,17,6,23,0.00,5,Fog,132
2011-11-26,67,59,50,64,61,42,100,95,90,30.11,29.95,29.89,10,7,1,18,8,28,1.12,8,Rain,236
2011-11-27,53,44,34,41,30,25,74,56,38,30.22,30.17,30.11,10,10,10,20,9,29,0.00,2,,310
2011-11-28,55,41,27,30,26,21,85,57,28,30.17,30.10,30.03,10,10,10,14,5,20,T,0,,298
2011-11-29,65,47,29,34,28,22,85,54,23,30.21,30.14,30.07,10,10,10,14,5,21,0.00,0,,311
2011-11-30,63,47,30,36,32,27,92,60,27,30.27,30.20,30.14,10,10,8,9,2,15,0.00,0,,55